createdAt,value
2024-02-18T00:00:57.994Z,1019.60
2024-02-18T00:01:57.865Z,1019.58
2024-02-18T00:02:57.869Z,1019.56
2024-02-18T00:03:57.923Z,1019.56
2024-02-18T00:04:57.826Z,1019.60
2024-02-18T00:05:57.841Z,1019.65
2024-02-18T00:06:57.893Z,1019.67
2024-02-18T00:07:57.768Z,1019.68
2024-02-18T00:08:57.841Z,1019.68
2024-02-18T00:09:57.856Z,1019.69
2024-02-18T00:10:57.854Z,1019.64
2024-02-18T00:11:57.762Z,1019.66
2024-02-18T00:12:57.876Z,1019.66
2024-02-18T00:13:57.759Z,1019.67
2024-02-18T00:14:57.731Z,1019.71
2024-02-18T00:15:57.780Z,1019.75
2024-02-18T00:16:57.633Z,1019.74
2024-02-18T00:17:57.679Z,1019.76
2024-02-18T00:18:57.736Z,1019.71
2024-02-18T00:19:57.714Z,1019.74
2024-02-18T00:20:57.606Z,1019.74
2024-02-18T00:21:57.653Z,1019.73
2024-02-18T00:22:57.598Z,1019.75
2024-02-18T00:24:00.033Z,1019.71
2024-02-18T00:24:57.630Z,1019.70
2024-02-18T00:25:57.584Z,1019.75
2024-02-18T00:26:59.132Z,1019.71
2024-02-18T00:27:59.048Z,1019.73
2024-02-18T00:28:57.539Z,1019.71
2024-02-18T00:29:58.188Z,1019.67
2024-02-18T00:30:58.294Z,1019.66
2024-02-18T00:31:57.999Z,1019.62
2024-02-18T00:32:57.612Z,1019.64
2024-02-18T00:33:57.622Z,1019.66
2024-02-18T00:34:57.549Z,1019.62
2024-02-18T00:35:58.116Z,1019.66
2024-02-18T00:36:58.241Z,1019.62
2024-02-18T00:37:58.916Z,1019.60
2024-02-18T00:38:57.370Z,1019.54
2024-02-18T00:39:57.407Z,1019.61
2024-02-18T00:40:57.367Z,1019.62
2024-02-18T00:41:57.341Z,1019.62
2024-02-18T00:42:57.438Z,1019.62
2024-02-18T00:43:57.348Z,1019.63
2024-02-18T00:44:57.310Z,1019.64
2024-02-18T00:45:57.402Z,1019.62
2024-02-18T00:47:04.789Z,1019.61
2024-02-18T00:47:58.335Z,1019.57
2024-02-18T00:48:57.332Z,1019.59
2024-02-18T00:49:57.261Z,1019.57
2024-02-18T00:50:57.235Z,1019.53
2024-02-18T00:51:57.186Z,1019.50
2024-02-18T00:52:57.190Z,1019.49
2024-02-18T00:53:57.148Z,1019.48
2024-02-18T00:54:57.286Z,1019.42
2024-02-18T00:55:57.120Z,1019.43
2024-02-18T00:56:57.110Z,1019.47
2024-02-18T00:57:57.187Z,1019.51
2024-02-18T00:58:57.093Z,1019.51
2024-02-18T00:59:57.126Z,1019.56
2024-02-18T01:00:57.186Z,1019.58
2024-02-18T01:01:57.155Z,1019.54
2024-02-18T01:02:57.057Z,1019.55
2024-02-18T01:03:57.109Z,1019.56
2024-02-18T01:04:57.058Z,1019.61
2024-02-18T01:05:57.071Z,1019.55
2024-02-18T01:06:57.023Z,1019.58
2024-02-18T01:07:56.961Z,1019.54
2024-02-18T01:08:56.947Z,1019.54
2024-02-18T01:09:57.036Z,1019.50
2024-02-18T01:10:56.938Z,1019.53
2024-02-18T01:11:56.928Z,1019.49
2024-02-18T01:12:56.994Z,1019.48
2024-02-18T01:13:56.881Z,1019.46
2024-02-18T01:14:56.879Z,1019.49
2024-02-18T01:15:56.989Z,1019.53
2024-02-18T01:16:56.898Z,1019.56
2024-02-18T01:17:56.874Z,1019.57
2024-02-18T01:18:57.106Z,1019.60
2024-02-18T01:19:56.901Z,1019.61
2024-02-18T01:20:56.840Z,1019.59
2024-02-18T01:21:56.890Z,1019.58
2024-02-18T01:22:56.807Z,1019.53
2024-02-18T01:23:56.796Z,1019.57
2024-02-18T01:24:56.800Z,1019.54
2024-02-18T01:25:56.729Z,1019.57
2024-02-18T01:26:56.736Z,1019.52
2024-02-18T01:27:56.855Z,1019.51
2024-02-18T01:28:56.683Z,1019.46
2024-02-18T01:29:56.708Z,1019.46
2024-02-18T01:30:56.738Z,1019.47
2024-02-18T01:31:56.716Z,1019.44
2024-02-18T01:32:56.648Z,1019.42
2024-02-18T01:33:56.852Z,1019.40
2024-02-18T01:34:56.727Z,1019.37
2024-02-18T01:35:56.600Z,1019.35
2024-02-18T01:36:56.671Z,1019.40
2024-02-18T01:37:56.571Z,1019.41
2024-02-18T01:38:56.572Z,1019.41
2024-02-18T01:39:56.597Z,1019.36
2024-02-18T01:40:56.532Z,1019.37
2024-02-18T01:41:56.540Z,1019.38
2024-02-18T01:42:56.576Z,1019.35
2024-02-18T01:43:56.482Z,1019.32
2024-02-18T01:44:56.498Z,1019.35
2024-02-18T01:45:56.725Z,1019.34
2024-02-18T01:46:56.455Z,1019.34
2024-02-18T01:47:56.509Z,1019.36
2024-02-18T01:48:56.558Z,1019.33
2024-02-18T01:49:56.616Z,1019.35
2024-02-18T01:50:56.473Z,1019.34
2024-02-18T01:51:56.503Z,1019.39
2024-02-18T01:52:56.406Z,1019.40
2024-02-18T01:53:56.344Z,1019.33
2024-02-18T01:54:57.126Z,1019.36
2024-02-18T01:55:56.365Z,1019.32
2024-02-18T01:56:56.361Z,1019.31
2024-02-18T01:57:56.403Z,1019.38
2024-02-18T01:58:56.398Z,1019.42
2024-02-18T01:59:56.320Z,1019.36
2024-02-18T02:00:56.385Z,1019.40
2024-02-18T02:01:56.335Z,1019.39
2024-02-18T02:02:56.270Z,1019.38
2024-02-18T02:03:56.351Z,1019.43
2024-02-18T02:04:56.478Z,1019.40
2024-02-18T02:05:56.240Z,1019.40
2024-02-18T02:06:56.222Z,1019.34
2024-02-18T02:07:56.189Z,1019.34
2024-02-18T02:08:56.221Z,1019.30
2024-02-18T02:09:56.176Z,1019.22
2024-02-18T02:10:56.212Z,1019.24
2024-02-18T02:11:56.145Z,1019.27
2024-02-18T02:12:56.210Z,1019.29
2024-02-18T02:13:56.087Z,1019.31
2024-02-18T02:14:56.153Z,1019.33
2024-02-18T02:15:56.179Z,1019.38
2024-02-18T02:16:56.169Z,1019.39
2024-02-18T02:17:56.090Z,1019.40
2024-02-18T02:18:56.142Z,1019.40
2024-02-18T02:19:56.141Z,1019.38
2024-02-18T02:20:56.076Z,1019.40
2024-02-18T02:21:56.155Z,1019.41
2024-02-18T02:22:56.020Z,1019.40
2024-02-18T02:23:55.990Z,1019.43
2024-02-18T02:24:55.964Z,1019.41
2024-02-18T02:25:55.944Z,1019.39
2024-02-18T02:26:56.002Z,1019.44
2024-02-18T02:27:55.950Z,1019.43
2024-02-18T02:28:55.929Z,1019.41
2024-02-18T02:29:55.921Z,1019.42
2024-02-18T02:30:55.943Z,1019.33
2024-02-18T02:31:58.439Z,1019.35
2024-02-18T02:32:56.084Z,1019.35
2024-02-18T02:33:55.878Z,1019.40
2024-02-18T02:34:55.907Z,1019.39
2024-02-18T02:35:55.823Z,1019.39
2024-02-18T02:36:55.925Z,1019.38
2024-02-18T02:37:55.769Z,1019.40
2024-02-18T02:38:58.599Z,1019.40
2024-02-18T02:39:55.834Z,1019.39
2024-02-18T02:40:55.785Z,1019.38
2024-02-18T02:41:55.727Z,1019.35
2024-02-18T02:42:55.769Z,1019.36
2024-02-18T02:43:55.731Z,1019.36
2024-02-18T02:44:55.702Z,1019.33
2024-02-18T02:45:55.799Z,1019.36
2024-02-18T02:46:55.694Z,1019.34
2024-02-18T02:47:55.780Z,1019.31
2024-02-18T02:48:55.715Z,1019.31
2024-02-18T02:49:55.875Z,1019.25
2024-02-18T02:50:55.653Z,1019.26
2024-02-18T02:51:55.651Z,1019.26
2024-02-18T02:52:55.635Z,1019.30
2024-02-18T02:53:55.587Z,1019.28
2024-02-18T02:54:55.684Z,1019.30
2024-02-18T02:55:55.621Z,1019.28
2024-02-18T02:56:55.519Z,1019.29
2024-02-18T02:57:55.537Z,1019.19
2024-02-18T02:58:55.499Z,1019.20
2024-02-18T02:59:55.517Z,1019.18
2024-02-18T03:00:55.586Z,1019.14
2024-02-18T03:01:55.504Z,1019.10
2024-02-18T03:02:55.453Z,1019.16
2024-02-18T03:03:55.532Z,1019.07
2024-02-18T03:04:55.497Z,1019.07
2024-02-18T03:05:55.437Z,1019.11
2024-02-18T03:06:55.517Z,1019.09
2024-02-18T03:07:55.389Z,1019.06
2024-02-18T03:08:55.402Z,1019.09
2024-02-18T03:09:55.454Z,1019.08
2024-02-18T03:10:55.343Z,1019.04
2024-02-18T03:11:55.404Z,1019.03
2024-02-18T03:12:55.369Z,1018.94
2024-02-18T03:13:55.354Z,1018.93
2024-02-18T03:14:55.344Z,1018.91
2024-02-18T03:15:55.316Z,1018.97
2024-02-18T03:16:55.293Z,1018.91
2024-02-18T03:17:55.269Z,1018.89
2024-02-18T03:18:55.320Z,1018.96
2024-02-18T03:19:55.283Z,1018.88
2024-02-18T03:20:55.249Z,1018.86
2024-02-18T03:21:55.243Z,1018.79
2024-02-18T03:22:55.219Z,1018.80
2024-02-18T03:23:55.241Z,1018.76
2024-02-18T03:24:55.219Z,1018.75
2024-02-18T03:25:55.179Z,1018.73
2024-02-18T03:26:55.149Z,1018.76
2024-02-18T03:27:55.182Z,1018.72
2024-02-18T03:28:55.189Z,1018.71
2024-02-18T03:29:55.107Z,1018.74
2024-02-18T03:30:55.152Z,1018.78
2024-02-18T03:31:55.098Z,1018.81
2024-02-18T03:32:55.150Z,1018.79
2024-02-18T03:33:55.236Z,1018.75
2024-02-18T03:34:55.182Z,1018.75
2024-02-18T03:35:55.037Z,1018.72
2024-02-18T03:36:55.125Z,1018.82
2024-02-18T03:37:55.054Z,1018.71
2024-02-18T03:38:55.026Z,1018.69
2024-02-18T03:39:55.104Z,1018.66
2024-02-18T03:40:54.976Z,1018.64
2024-02-18T03:41:54.980Z,1018.65
2024-02-18T03:42:54.960Z,1018.72
2024-02-18T03:43:54.938Z,1018.74
2024-02-18T03:44:54.981Z,1018.72
2024-02-18T03:45:54.960Z,1018.67
2024-02-18T03:46:54.905Z,1018.62
2024-02-18T03:47:54.919Z,1018.69
2024-02-18T03:48:54.995Z,1018.65
2024-02-18T03:49:55.011Z,1018.70
2024-02-18T03:50:54.894Z,1018.64
2024-02-18T03:51:54.921Z,1018.70
2024-02-18T03:52:54.852Z,1018.66
2024-02-18T03:53:54.838Z,1018.67
2024-02-18T03:54:54.810Z,1018.61
2024-02-18T03:55:54.853Z,1018.70
2024-02-18T03:56:54.788Z,1018.72
2024-02-18T03:57:54.890Z,1018.68
2024-02-18T03:58:54.867Z,1018.68
2024-02-18T03:59:54.793Z,1018.70
2024-02-18T04:00:54.817Z,1018.68
2024-02-18T04:01:54.817Z,1018.67
2024-02-18T04:02:54.738Z,1018.73
2024-02-18T04:03:54.810Z,1018.74
2024-02-18T04:04:54.709Z,1018.67
2024-02-18T04:05:54.810Z,1018.71
2024-02-18T04:06:54.671Z,1018.71
2024-02-18T04:07:54.640Z,1018.65
2024-02-18T04:08:54.660Z,1018.63
2024-02-18T04:09:54.691Z,1018.64
2024-02-18T04:10:54.649Z,1018.66
2024-02-18T04:11:54.625Z,1018.65
2024-02-18T04:12:54.595Z,1018.63
2024-02-18T04:13:54.583Z,1018.61
2024-02-18T04:14:54.541Z,1018.62
2024-02-18T04:15:54.553Z,1018.63
2024-02-18T04:16:54.568Z,1018.59
2024-02-18T04:17:54.571Z,1018.59
2024-02-18T04:18:54.634Z,1018.62
2024-02-18T04:19:54.569Z,1018.59
2024-02-18T04:20:54.466Z,1018.62
2024-02-18T04:21:54.477Z,1018.56
2024-02-18T04:22:54.417Z,1018.53
2024-02-18T04:23:54.418Z,1018.51
2024-02-18T04:24:54.434Z,1018.47
2024-02-18T04:25:54.385Z,1018.46
2024-02-18T04:26:54.385Z,1018.49
2024-02-18T04:27:54.469Z,1018.43
2024-02-18T04:28:54.380Z,1018.45
2024-02-18T04:29:54.350Z,1018.40
2024-02-18T04:30:54.344Z,1018.44
2024-02-18T04:31:54.349Z,1018.38
2024-02-18T04:32:54.303Z,1018.38
2024-02-18T04:33:54.356Z,1018.42
2024-02-18T04:34:54.340Z,1018.43
2024-02-18T04:35:54.250Z,1018.44
2024-02-18T04:36:54.289Z,1018.43
2024-02-18T04:37:54.220Z,1018.40
2024-02-18T04:38:54.224Z,1018.37
2024-02-18T04:39:54.265Z,1018.36
2024-02-18T04:40:54.191Z,1018.41
2024-02-18T04:41:54.189Z,1018.40
2024-02-18T04:42:54.232Z,1018.42
2024-02-18T04:43:54.152Z,1018.40
2024-02-18T04:44:54.130Z,1018.41
2024-02-18T04:45:54.172Z,1018.38
2024-02-18T04:46:54.114Z,1018.40
2024-02-18T04:47:54.163Z,1018.39
2024-02-18T04:48:54.287Z,1018.38
2024-02-18T04:49:54.280Z,1018.40
2024-02-18T04:50:54.142Z,1018.49
2024-02-18T04:51:54.132Z,1018.47
2024-02-18T04:52:54.061Z,1018.39
2024-02-18T04:53:54.061Z,1018.39
2024-02-18T04:54:54.245Z,1018.35
2024-02-18T04:55:54.024Z,1018.38
2024-02-18T04:56:53.986Z,1018.38
2024-02-18T04:57:54.053Z,1018.41
2024-02-18T04:58:53.968Z,1018.45
2024-02-18T04:59:53.971Z,1018.39
2024-02-18T05:00:54.063Z,1018.40
2024-02-18T05:01:54.003Z,1018.36
2024-02-18T05:02:53.952Z,1018.37
2024-02-18T05:03:53.969Z,1018.34
2024-02-18T05:04:53.923Z,1018.40
2024-02-18T05:05:53.978Z,1018.44
2024-02-18T05:06:53.922Z,1018.38
2024-02-18T05:07:53.853Z,1018.40
2024-02-18T05:08:53.880Z,1018.34
2024-02-18T05:09:53.852Z,1018.31
2024-02-18T05:10:53.837Z,1018.27
2024-02-18T05:11:53.847Z,1018.32
2024-02-18T05:12:53.833Z,1018.29
2024-02-18T05:13:53.836Z,1018.29
2024-02-18T05:14:53.782Z,1018.28
2024-02-18T05:15:53.808Z,1018.32
2024-02-18T05:16:53.742Z,1018.30
2024-02-18T05:17:53.726Z,1018.28
2024-02-18T05:18:53.840Z,1018.34
2024-02-18T05:19:53.716Z,1018.31
2024-02-18T05:20:53.664Z,1018.29
2024-02-18T05:21:53.703Z,1018.30
2024-02-18T05:22:53.635Z,1018.24
2024-02-18T05:23:53.661Z,1018.22
2024-02-18T05:24:53.622Z,1018.17
2024-02-18T05:25:53.628Z,1018.09
2024-02-18T05:26:53.618Z,1018.11
2024-02-18T05:27:53.602Z,1018.08
2024-02-18T05:28:53.568Z,1018.04
2024-02-18T05:29:53.553Z,1018.05
2024-02-18T05:30:53.587Z,1018.04
2024-02-18T05:31:53.568Z,1018.03
2024-02-18T05:32:53.653Z,1018.05
2024-02-18T05:33:53.654Z,1018.06
2024-02-18T05:34:53.677Z,1018.04
2024-02-18T05:35:53.549Z,1018.07
2024-02-18T05:36:53.532Z,1018.06
2024-02-18T05:37:53.452Z,1018.07
2024-02-18T05:38:53.493Z,1018.07
2024-02-18T05:39:53.429Z,1018.02
2024-02-18T05:40:53.454Z,1018.00
2024-02-18T05:41:53.425Z,1018.00
2024-02-18T05:42:53.398Z,1017.96
2024-02-18T05:43:53.369Z,1017.98
2024-02-18T05:44:53.342Z,1017.97
2024-02-18T05:45:53.390Z,1018.00
2024-02-18T05:46:53.360Z,1017.98
2024-02-18T05:47:53.485Z,1018.03
2024-02-18T05:48:53.410Z,1017.99
2024-02-18T05:49:53.367Z,1018.04
2024-02-18T05:50:53.335Z,1018.07
2024-02-18T05:51:53.333Z,1018.04
2024-02-18T05:52:53.247Z,1018.07
2024-02-18T05:53:53.249Z,1018.04
2024-02-18T05:54:53.331Z,1018.07
2024-02-18T05:55:53.241Z,1018.07
2024-02-18T05:56:53.216Z,1018.10
2024-02-18T05:57:53.292Z,1018.06
2024-02-18T05:58:53.225Z,1018.05
2024-02-18T05:59:53.221Z,1018.07
2024-02-18T06:00:53.284Z,1018.02
2024-02-18T06:01:53.284Z,1018.03
2024-02-18T06:02:53.138Z,1017.99
2024-02-18T06:03:53.149Z,1017.95
2024-02-18T06:04:53.320Z,1017.98
2024-02-18T06:05:53.307Z,1017.98
2024-02-18T06:06:53.205Z,1017.98
2024-02-18T06:07:53.129Z,1017.97
2024-02-18T06:08:53.055Z,1018.00
2024-02-18T06:09:53.151Z,1018.00
2024-02-18T06:10:53.171Z,1017.95
2024-02-18T06:11:53.052Z,1017.97
2024-02-18T06:12:53.014Z,1017.94
2024-02-18T06:13:53.006Z,1017.94
2024-02-18T06:14:53.000Z,1017.92
2024-02-18T06:15:52.977Z,1017.91
2024-02-18T06:16:52.933Z,1017.97
2024-02-18T06:17:53.032Z,1017.92
2024-02-18T06:18:53.195Z,1017.96
2024-02-18T06:19:53.007Z,1017.99
2024-02-18T06:20:52.887Z,1017.95
2024-02-18T06:21:52.934Z,1017.96
2024-02-18T06:22:52.848Z,1017.98
2024-02-18T06:23:52.874Z,1017.95
2024-02-18T06:24:52.883Z,1018.02
2024-02-18T06:25:52.834Z,1018.02
2024-02-18T06:26:52.800Z,1018.06
2024-02-18T06:27:52.835Z,1018.03
2024-02-18T06:28:52.864Z,1018.04
2024-02-18T06:29:52.776Z,1018.05
2024-02-18T06:30:52.798Z,1018.04
2024-02-18T06:31:52.769Z,1018.02
2024-02-18T06:32:52.752Z,1018.06
2024-02-18T06:33:52.907Z,1018.00
2024-02-18T06:34:52.948Z,1017.99
2024-02-18T06:35:52.869Z,1018.01
2024-02-18T06:36:52.721Z,1018.00
2024-02-18T06:37:52.665Z,1017.94
2024-02-18T06:38:52.664Z,1017.97
2024-02-18T06:39:52.760Z,1017.95
2024-02-18T06:40:52.642Z,1017.96
2024-02-18T06:41:52.660Z,1017.89
2024-02-18T06:42:52.727Z,1017.96
2024-02-18T06:43:52.604Z,1017.91
2024-02-18T06:44:52.627Z,1017.93
2024-02-18T06:45:52.682Z,1017.96
2024-02-18T06:46:53.149Z,1017.87
2024-02-18T06:47:52.723Z,1017.90
2024-02-18T06:48:52.855Z,1017.89
2024-02-18T06:49:52.761Z,1017.89
2024-02-18T06:50:52.632Z,1017.83
2024-02-18T06:51:52.510Z,1017.88
2024-02-18T06:52:52.545Z,1017.85
2024-02-18T06:53:52.595Z,1017.86
2024-02-18T06:54:52.464Z,1017.87
2024-02-18T06:55:52.526Z,1017.87
2024-02-18T06:56:52.444Z,1017.88
2024-02-18T06:57:52.502Z,1017.87
2024-02-18T06:58:52.445Z,1017.83
2024-02-18T06:59:52.419Z,1017.78
2024-02-18T07:00:52.454Z,1017.81
2024-02-18T07:01:52.413Z,1017.79
2024-02-18T07:02:52.357Z,1017.80
2024-02-18T07:03:52.389Z,1017.82
2024-02-18T07:04:52.419Z,1017.79
2024-02-18T07:05:52.347Z,1017.78
2024-02-18T07:06:52.379Z,1017.77
2024-02-18T07:07:52.320Z,1017.76
2024-02-18T07:08:52.320Z,1017.80
2024-02-18T07:09:52.290Z,1017.75
2024-02-18T07:10:52.328Z,1017.72
2024-02-18T07:11:52.265Z,1017.73
2024-02-18T07:12:52.302Z,1017.67
2024-02-18T07:13:52.222Z,1017.70
2024-02-18T07:14:52.200Z,1017.67
2024-02-18T07:15:52.264Z,1017.64
2024-02-18T07:16:52.202Z,1017.66
2024-02-18T07:17:52.272Z,1017.64
2024-02-18T07:18:52.205Z,1017.57
2024-02-18T07:19:52.192Z,1017.55
2024-02-18T07:20:52.146Z,1017.51
2024-02-18T07:21:52.205Z,1017.50
2024-02-18T07:22:52.102Z,1017.51
2024-02-18T07:23:52.069Z,1017.48
2024-02-18T07:24:52.171Z,1017.47
2024-02-18T07:25:52.060Z,1017.45
2024-02-18T07:26:52.019Z,1017.49
2024-02-18T07:27:52.128Z,1017.48
2024-02-18T07:28:52.083Z,1017.45
2024-02-18T07:29:52.023Z,1017.41
2024-02-18T07:30:52.029Z,1017.47
2024-02-18T07:31:51.962Z,1017.39
2024-02-18T07:32:52.036Z,1017.35
2024-02-18T07:33:52.133Z,1017.31
2024-02-18T07:34:51.960Z,1017.39
2024-02-18T07:35:51.943Z,1017.44
2024-02-18T07:36:51.965Z,1017.41
2024-02-18T07:37:51.909Z,1017.34
2024-02-18T07:38:52.013Z,1017.25
2024-02-18T07:39:51.909Z,1017.30
2024-02-18T07:40:51.872Z,1017.30
2024-02-18T07:41:51.846Z,1017.30
2024-02-18T07:42:51.867Z,1017.28
2024-02-18T07:43:51.850Z,1017.27
2024-02-18T07:44:51.804Z,1017.26
2024-02-18T07:45:54.505Z,1017.26
2024-02-18T07:46:51.769Z,1017.25
2024-02-18T07:47:51.857Z,1017.26
2024-02-18T07:48:52.010Z,1017.22
2024-02-18T07:49:51.788Z,1017.20
2024-02-18T07:50:51.715Z,1017.18
2024-02-18T07:51:51.743Z,1017.22
2024-02-18T07:52:51.693Z,1017.18
2024-02-18T07:53:51.719Z,1017.15
2024-02-18T07:54:51.791Z,1017.19
2024-02-18T07:55:51.688Z,1017.18
2024-02-18T07:56:51.616Z,1017.18
2024-02-18T07:57:51.837Z,1017.17
2024-02-18T07:58:51.678Z,1017.23
2024-02-18T07:59:51.606Z,1017.22
2024-02-18T08:00:51.657Z,1017.16
2024-02-18T08:01:51.718Z,1017.09
2024-02-18T08:02:51.574Z,1017.07
2024-02-18T08:03:51.600Z,1017.14
2024-02-18T08:04:51.682Z,1017.07
2024-02-18T08:05:51.567Z,1017.14
2024-02-18T08:06:51.550Z,1017.09
2024-02-18T08:07:51.506Z,1017.10
2024-02-18T08:08:51.578Z,1017.07
2024-02-18T08:09:51.517Z,1017.07
2024-02-18T08:10:51.451Z,1017.10
2024-02-18T08:11:51.471Z,1017.04
2024-02-18T08:12:53.857Z,1017.02
2024-02-18T08:13:51.443Z,1017.05
2024-02-18T08:14:51.396Z,1016.99
2024-02-18T08:15:51.432Z,1017.03
2024-02-18T08:16:51.484Z,1017.09
2024-02-18T08:17:51.499Z,1017.05
2024-02-18T08:18:51.598Z,1016.99
2024-02-18T08:19:51.454Z,1017.04
2024-02-18T08:20:51.310Z,1016.96
2024-02-18T08:21:51.411Z,1016.91
2024-02-18T08:22:51.436Z,1016.93
2024-02-18T08:23:51.302Z,1016.89
2024-02-18T08:24:51.310Z,1016.95
2024-02-18T08:25:51.277Z,1016.89
2024-02-18T08:26:51.300Z,1016.89
2024-02-18T08:27:51.493Z,1016.89
2024-02-18T08:28:51.380Z,1016.81
2024-02-18T08:29:51.203Z,1016.79
2024-02-18T08:30:51.291Z,1016.86
2024-02-18T08:31:51.537Z,1016.79
2024-02-18T08:32:55.452Z,1016.75
2024-02-18T08:33:52.358Z,1016.73
2024-02-18T08:34:51.401Z,1016.77
2024-02-18T08:35:52.903Z,1016.71
2024-02-18T08:36:51.193Z,1016.71
2024-02-18T08:37:51.122Z,1016.70
2024-02-18T08:38:51.182Z,1016.65
2024-02-18T08:39:51.147Z,1016.67
2024-02-18T08:40:51.044Z,1016.67
2024-02-18T08:41:51.040Z,1016.65
2024-02-18T08:42:51.159Z,1016.65
2024-02-18T08:43:51.044Z,1016.61
2024-02-18T08:44:51.039Z,1016.62
2024-02-18T08:45:51.101Z,1016.63
2024-02-18T08:46:51.011Z,1016.60
2024-02-18T08:47:51.054Z,1016.58
2024-02-18T08:48:51.067Z,1016.61
2024-02-18T08:49:51.105Z,1016.57
2024-02-18T08:50:50.952Z,1016.61
2024-02-18T08:51:50.948Z,1016.58
2024-02-18T08:52:50.908Z,1016.53
2024-02-18T08:53:50.893Z,1016.56
2024-02-18T08:54:50.901Z,1016.55
2024-02-18T08:55:50.878Z,1016.49
2024-02-18T08:56:50.849Z,1016.53
2024-02-18T08:57:50.870Z,1016.47
2024-02-18T08:58:50.879Z,1016.48
2024-02-18T08:59:50.807Z,1016.44
2024-02-18T09:00:50.885Z,1016.43
2024-02-18T09:01:50.869Z,1016.44
2024-02-18T09:02:50.786Z,1016.44
2024-02-18T09:03:50.812Z,1016.40
2024-02-18T09:04:50.915Z,1016.35
2024-02-18T09:05:50.771Z,1016.40
2024-02-18T09:06:50.800Z,1016.35
2024-02-18T09:07:50.691Z,1016.36
2024-02-18T09:08:50.713Z,1016.31
2024-02-18T09:09:50.738Z,1016.32
2024-02-18T09:10:50.705Z,1016.34
2024-02-18T09:11:50.652Z,1016.32
2024-02-18T09:12:50.667Z,1016.32
2024-02-18T09:13:50.659Z,1016.33
2024-02-18T09:14:50.616Z,1016.36
2024-02-18T09:15:50.868Z,1016.28
2024-02-18T09:16:50.625Z,1016.26
2024-02-18T09:17:50.650Z,1016.21
2024-02-18T09:18:50.667Z,1016.18
2024-02-18T09:19:50.719Z,1016.20
2024-02-18T09:20:50.535Z,1016.15
2024-02-18T09:21:50.556Z,1016.14
2024-02-18T09:22:50.548Z,1016.18
2024-02-18T09:23:51.134Z,1016.16
2024-02-18T09:24:51.160Z,1016.16
2024-02-18T09:25:54.540Z,1016.19
2024-02-18T09:26:50.477Z,1016.17
2024-02-18T09:27:51.708Z,1016.14
2024-02-18T09:28:50.561Z,1016.14
2024-02-18T09:29:50.494Z,1016.10
2024-02-18T09:30:50.479Z,1016.09
2024-02-18T09:31:50.441Z,1016.06
2024-02-18T09:32:50.400Z,1016.09
2024-02-18T09:33:50.517Z,1016.07
2024-02-18T09:34:50.538Z,1016.03
2024-02-18T09:35:50.447Z,1016.02
2024-02-18T09:36:50.413Z,1016.03
2024-02-18T09:37:50.404Z,1015.96
2024-02-18T09:38:50.382Z,1015.94
2024-02-18T09:39:50.334Z,1015.93
2024-02-18T09:40:50.317Z,1015.91
2024-02-18T09:41:50.325Z,1015.94
2024-02-18T09:42:50.382Z,1015.93
2024-02-18T09:43:50.262Z,1015.90
2024-02-18T09:44:50.242Z,1015.93
2024-02-18T09:45:50.253Z,1015.89
2024-02-18T09:46:50.217Z,1015.94
2024-02-18T09:47:50.256Z,1015.92
2024-02-18T09:48:50.339Z,1015.87
2024-02-18T09:49:50.192Z,1015.84
2024-02-18T09:50:50.140Z,1015.84
2024-02-18T09:51:50.164Z,1015.86
2024-02-18T09:52:50.133Z,1015.84
2024-02-18T09:53:50.175Z,1015.80
2024-02-18T09:54:50.154Z,1015.80
2024-02-18T09:55:50.093Z,1015.80
2024-02-18T09:56:50.058Z,1015.83
2024-02-18T09:57:50.211Z,1015.79
2024-02-18T09:58:50.108Z,1015.79
2024-02-18T09:59:50.042Z,1015.85
2024-02-18T10:00:50.026Z,1015.75
2024-02-18T10:01:50.081Z,1015.79
2024-02-18T10:02:50.006Z,1015.73
2024-02-18T10:03:50.095Z,1015.74
2024-02-18T10:04:50.023Z,1015.74
2024-02-18T10:05:49.962Z,1015.76
2024-02-18T10:06:50.080Z,1015.71
2024-02-18T10:07:49.902Z,1015.68
2024-02-18T10:08:49.911Z,1015.67
2024-02-18T10:09:49.928Z,1015.70
2024-02-18T10:10:49.891Z,1015.66
2024-02-18T10:11:49.867Z,1015.67
2024-02-18T10:12:49.878Z,1015.60
2024-02-18T10:13:49.869Z,1015.55
2024-02-18T10:14:49.816Z,1015.58
2024-02-18T10:15:49.833Z,1015.56
2024-02-18T10:16:49.866Z,1015.53
2024-02-18T10:17:49.817Z,1015.52
2024-02-18T10:18:49.831Z,1015.50
2024-02-18T10:19:49.894Z,1015.47
2024-02-18T10:20:49.736Z,1015.43
2024-02-18T10:21:49.843Z,1015.44
2024-02-18T10:22:49.698Z,1015.40
2024-02-18T10:23:49.675Z,1015.42
2024-02-18T10:24:49.743Z,1015.39
2024-02-18T10:25:49.694Z,1015.37
2024-02-18T10:26:49.703Z,1015.36
2024-02-18T10:27:49.724Z,1015.40
2024-02-18T10:28:49.687Z,1015.34
2024-02-18T10:29:49.616Z,1015.31
2024-02-18T10:30:49.698Z,1015.31
2024-02-18T10:31:49.622Z,1015.32
2024-02-18T10:32:49.634Z,1015.27
2024-02-18T10:33:49.758Z,1015.27
2024-02-18T10:34:50.356Z,1015.24
2024-02-18T10:35:49.601Z,1015.23
2024-02-18T10:36:49.595Z,1015.20
2024-02-18T10:37:49.507Z,1015.22
2024-02-18T10:38:49.472Z,1015.23
2024-02-18T10:39:49.549Z,1015.12
2024-02-18T10:40:49.479Z,1015.11
2024-02-18T10:41:49.438Z,1015.16
2024-02-18T10:42:49.440Z,1015.09
2024-02-18T10:43:49.444Z,1015.06
2024-02-18T10:44:49.378Z,1015.04
2024-02-18T10:45:49.442Z,1015.02
2024-02-18T10:46:49.374Z,1014.97
2024-02-18T10:47:49.369Z,1014.94
2024-02-18T10:48:49.425Z,1014.92
2024-02-18T10:49:49.490Z,1014.94
2024-02-18T10:50:49.351Z,1014.85
2024-02-18T10:51:49.341Z,1014.86
2024-02-18T10:52:49.821Z,1014.85
2024-02-18T10:53:49.300Z,1014.83
2024-02-18T10:54:49.401Z,1014.80
2024-02-18T10:55:49.263Z,1014.77
2024-02-18T10:56:49.281Z,1014.81
2024-02-18T10:57:49.302Z,1014.74
2024-02-18T10:58:49.205Z,1014.70
2024-02-18T10:59:49.203Z,1014.69
2024-02-18T11:00:49.320Z,1014.68
2024-02-18T11:01:49.209Z,1014.66
2024-02-18T11:02:49.178Z,1014.62
2024-02-18T11:03:49.283Z,1014.62
2024-02-18T11:04:49.182Z,1014.57
2024-02-18T11:05:49.181Z,1014.56
2024-02-18T11:06:49.327Z,1014.54
2024-02-18T11:07:49.173Z,1014.50
2024-02-18T11:08:49.136Z,1014.54
2024-02-18T11:09:49.097Z,1014.47
2024-02-18T11:10:49.140Z,1014.46
2024-02-18T11:11:49.046Z,1014.44
2024-02-18T11:12:49.043Z,1014.42
2024-02-18T11:13:49.001Z,1014.40
2024-02-18T11:14:49.008Z,1014.35
2024-02-18T11:15:49.007Z,1014.33
2024-02-18T11:16:49.005Z,1014.31
2024-02-18T11:17:49.040Z,1014.34
2024-02-18T11:18:49.051Z,1014.22
2024-02-18T11:19:49.074Z,1014.21
2024-02-18T11:20:48.934Z,1014.20
2024-02-18T11:21:48.900Z,1014.13
2024-02-18T11:22:48.922Z,1014.12
2024-02-18T11:23:48.889Z,1014.13
2024-02-18T11:24:48.921Z,1014.15
2024-02-18T11:25:48.841Z,1014.09
2024-02-18T11:26:48.827Z,1014.08
2024-02-18T11:27:48.870Z,1014.09
2024-02-18T11:28:49.313Z,1014.04
2024-02-18T11:29:48.818Z,1013.97
2024-02-18T11:30:48.786Z,1013.97
2024-02-18T11:31:48.759Z,1013.94
2024-02-18T11:32:48.757Z,1013.89
2024-02-18T11:33:48.835Z,1013.89
2024-02-18T11:34:50.467Z,1013.89
2024-02-18T11:35:48.700Z,1013.88
2024-02-18T11:36:48.724Z,1013.81
2024-02-18T11:37:48.715Z,1013.81
2024-02-18T11:38:48.676Z,1013.79
2024-02-18T11:39:48.677Z,1013.73
2024-02-18T11:40:48.674Z,1013.79
2024-02-18T11:41:48.618Z,1013.76
2024-02-18T11:42:48.725Z,1013.71
2024-02-18T11:43:48.642Z,1013.71
2024-02-18T11:44:48.641Z,1013.70
2024-02-18T11:45:48.700Z,1013.67
2024-02-18T11:46:48.550Z,1013.64
2024-02-18T11:47:48.652Z,1013.62
2024-02-18T11:48:48.727Z,1013.64
2024-02-18T11:49:48.558Z,1013.55
2024-02-18T11:50:48.491Z,1013.55
2024-02-18T11:51:48.576Z,1013.58
2024-02-18T11:52:48.528Z,1013.57
2024-02-18T11:53:48.467Z,1013.52
2024-02-18T11:54:48.529Z,1013.50
2024-02-18T11:55:48.442Z,1013.45
2024-02-18T11:56:48.465Z,1013.43
2024-02-18T11:57:48.475Z,1013.42
2024-02-18T11:58:48.440Z,1013.35
2024-02-18T11:59:48.394Z,1013.38
2024-02-18T12:00:48.505Z,1013.36
2024-02-18T12:01:48.402Z,1013.31
2024-02-18T12:02:48.360Z,1013.32
2024-02-18T12:03:48.378Z,1013.31
2024-02-18T12:04:48.365Z,1013.28
2024-02-18T12:05:48.379Z,1013.25